sensor_id;sensor_type;location;lat;lon;timestamp;pressure;altitude;pressure_sealevel;temperature;humidity
36010;BME280;22076;52.182;5.404;2024-03-02T00:00:30;100432.31;;;10.49;100.00
36010;BME280;22076;52.182;5.404;2024-03-02T00:02:57;100423.19;;;10.56;100.00
36010;BME280;22076;52.182;5.404;2024-03-02T00:05:25;100427.38;;;10.59;100.00
36010;BME280;22076;52.182;5.404;2024-03-02T00:07:55;100433.72;;;10.55;100.00
36010;BME280;22076;52.182;5.404;2024-03-02T00:10:23;100426.00;;;10.53;100.00
36010;BME280;22076;52.182;5.404;2024-03-02T00:12:54;100438.97;;;10.40;100.00
36010;BME280;22076;52.182;5.404;2024-03-02T00:15:37;100436.69;;;10.63;100.00
36010;BME280;22076;52.182;5.404;2024-03-02T00:18:06;100445.13;;;10.39;100.00
36010;BME280;22076;52.182;5.404;2024-03-02T00:20:34;100449.31;;;10.56;100.00
36010;BME280;22076;52.182;5.404;2024-03-02T00:23:06;100447.63;;;10.55;100.00
36010;BME280;22076;52.182;5.404;2024-03-02T00:25:38;100478.13;;;10.55;100.00
36010;BME280;22076;52.182;5.404;2024-03-02T00:28:05;100460.78;;;10.54;100.00
36010;BME280;22076;52.182;5.404;2024-03-02T00:33:31;100487.25;;;10.62;100.00
36010;BME280;22076;52.182;5.404;2024-03-02T00:35:58;100486.13;;;10.66;100.00
36010;BME280;22076;52.182;5.404;2024-03-02T00:38:27;100502.00;;;10.63;100.00
36010;BME280;22076;52.182;5.404;2024-03-02T00:40:54;100506.09;;;10.53;100.00
36010;BME280;22076;52.182;5.404;2024-03-02T00:43:47;100518.34;;;10.67;100.00
36010;BME280;22076;52.182;5.404;2024-03-02T00:46:18;100524.38;;;10.67;100.00
36010;BME280;22076;52.182;5.404;2024-03-02T00:48:52;100523.81;;;10.62;100.00
36010;BME280;22076;52.182;5.404;2024-03-02T00:51:20;100532.88;;;10.56;100.00
36010;BME280;22076;52.182;5.404;2024-03-02T00:53:48;100540.16;;;10.51;100.00
36010;BME280;22076;52.182;5.404;2024-03-02T00:56:16;100532.53;;;10.48;100.00
36010;BME280;22076;52.182;5.404;2024-03-02T00:59:04;100548.25;;;10.61;100.00
36010;BME280;22076;52.182;5.404;2024-03-02T01:01:31;100535.88;;;10.36;100.00
36010;BME280;22076;52.182;5.404;2024-03-02T01:04:01;100551.06;;;10.44;100.00
36010;BME280;22076;52.182;5.404;2024-03-02T01:06:28;100551.16;;;10.42;100.00
36010;BME280;22076;52.182;5.404;2024-03-02T01:08:56;100554.91;;;10.52;100.00
36010;BME280;22076;52.182;5.404;2024-03-02T01:11:24;100552.94;;;10.41;100.00
36010;BME280;22076;52.182;5.404;2024-03-02T01:13:51;100539.34;;;10.20;100.00
36010;BME280;22076;52.182;5.404;2024-03-02T01:16:18;100546.63;;;10.15;100.00
36010;BME280;22076;52.182;5.404;2024-03-02T01:18:44;100556.97;;;10.31;100.00
36010;BME280;22076;52.182;5.404;2024-03-02T01:21:11;100532.94;;;10.26;100.00
36010;BME280;22076;52.182;5.404;2024-03-02T01:23:38;100531.25;;;10.25;100.00
36010;BME280;22076;52.182;5.404;2024-03-02T01:26:07;100534.34;;;10.17;100.00
36010;BME280;22076;52.182;5.404;2024-03-02T01:28:33;100543.88;;;10.02;100.00
36010;BME280;22076;52.182;5.404;2024-03-02T01:31:00;100547.03;;;9.93;100.00
36010;BME280;22076;52.182;5.404;2024-03-02T01:33:27;100546.59;;;10.01;100.00
36010;BME280;22076;52.182;5.404;2024-03-02T01:35:53;100552.47;;;10.04;100.00
36010;BME280;22076;52.182;5.404;2024-03-02T01:38:20;100546.59;;;10.01;100.00
36010;BME280;22076;52.182;5.404;2024-03-02T01:40:56;100546.41;;;10.04;100.00
36010;BME280;22076;52.182;5.404;2024-03-02T01:43:25;100554.44;;;10.01;100.00
36010;BME280;22076;52.182;5.404;2024-03-02T01:45:51;100546.94;;;9.95;100.00
36010;BME280;22076;52.182;5.404;2024-03-02T01:48:18;100548.63;;;9.96;100.00
36010;BME280;22076;52.182;5.404;2024-03-02T01:50:45;100555.97;;;9.89;100.00
36010;BME280;22076;52.182;5.404;2024-03-02T01:53:11;100555.63;;;9.95;100.00
36010;BME280;22076;52.182;5.404;2024-03-02T01:55:38;100558.16;;;9.97;100.00
36010;BME280;22076;52.182;5.404;2024-03-02T01:58:06;100567.47;;;10.01;100.00
36010;BME280;22076;52.182;5.404;2024-03-02T02:00:34;100557.13;;;9.99;100.00
36010;BME280;22076;52.182;5.404;2024-03-02T02:03:00;100556.03;;;9.73;100.00
36010;BME280;22076;52.182;5.404;2024-03-02T02:05:27;100554.50;;;9.85;100.00
36010;BME280;22076;52.182;5.404;2024-03-02T02:07:54;100557.66;;;9.90;100.00
36010;BME280;22076;52.182;5.404;2024-03-02T02:10:20;100535.22;;;9.87;100.00
36010;BME280;22076;52.182;5.404;2024-03-02T02:12:47;100554.06;;;10.07;100.00
36010;BME280;22076;52.182;5.404;2024-03-02T02:15:26;100561.09;;;9.90;100.00
36010;BME280;22076;52.182;5.404;2024-03-02T02:17:56;100553.78;;;9.67;100.00
36010;BME280;22076;52.182;5.404;2024-03-02T02:20:24;100554.88;;;9.63;100.00
36010;BME280;22076;52.182;5.404;2024-03-02T02:22:58;100542.31;;;9.69;100.00
36010;BME280;22076;52.182;5.404;2024-03-02T02:25:25;100544.03;;;9.54;100.00
36010;BME280;22076;52.182;5.404;2024-03-02T02:27:52;100537.50;;;9.47;100.00
36010;BME280;22076;52.182;5.404;2024-03-02T02:30:20;100541.59;;;9.51;100.00
36010;BME280;22076;52.182;5.404;2024-03-02T02:32:47;100519.63;;;9.55;100.00
36010;BME280;22076;52.182;5.404;2024-03-02T02:35:16;100530.53;;;9.62;100.00
36010;BME280;22076;52.182;5.404;2024-03-02T02:37:43;100521.75;;;9.49;100.00
36010;BME280;22076;52.182;5.404;2024-03-02T02:40:12;100539.47;;;9.58;100.00
36010;BME280;22076;52.182;5.404;2024-03-02T02:42:39;100542.53;;;9.50;100.00
36010;BME280;22076;52.182;5.404;2024-03-02T02:45:06;100545.03;;;9.52;100.00
36010;BME280;22076;52.182;5.404;2024-03-02T02:47:33;100536.28;;;9.53;100.00
36010;BME280;22076;52.182;5.404;2024-03-02T02:50:00;100534.25;;;9.58;100.00
36010;BME280;22076;52.182;5.404;2024-03-02T02:52:31;100517.63;;;9.45;100.00
36010;BME280;22076;52.182;5.404;2024-03-02T02:55:00;100539.00;;;9.51;100.00
36010;BME280;22076;52.182;5.404;2024-03-02T02:57:27;100539.91;;;9.50;100.00
36010;BME280;22076;52.182;5.404;2024-03-02T02:59:56;100543.53;;;9.48;100.00
36010;BME280;22076;52.182;5.404;2024-03-02T03:02:23;100542.94;;;9.42;100.00
36010;BME280;22076;52.182;5.404;2024-03-02T03:04:49;100540.69;;;9.52;100.00
36010;BME280;22076;52.182;5.404;2024-03-02T03:07:16;100551.53;;;9.45;100.00
36010;BME280;22076;52.182;5.404;2024-03-02T03:09:54;100540.13;;;9.31;100.00
36010;BME280;22076;52.182;5.404;2024-03-02T03:12:20;100543.56;;;9.32;100.00
36010;BME280;22076;52.182;5.404;2024-03-02T03:14:48;100537.63;;;9.44;100.00
36010;BME280;22076;52.182;5.404;2024-03-02T03:17:15;100548.75;;;9.48;100.00
36010;BME280;22076;52.182;5.404;2024-03-02T03:19:43;100540.84;;;9.49;100.00
36010;BME280;22076;52.182;5.404;2024-03-02T03:22:10;100530.84;;;9.41;100.00
36010;BME280;22076;52.182;5.404;2024-03-02T03:24:36;100533.53;;;9.40;100.00
36010;BME280;22076;52.182;5.404;2024-03-02T03:27:03;100547.56;;;9.53;100.00
36010;BME280;22076;52.182;5.404;2024-03-02T03:29:29;100547.84;;;9.33;100.00
36010;BME280;22076;52.182;5.404;2024-03-02T03:31:57;100562.13;;;9.41;100.00
36010;BME280;22076;52.182;5.404;2024-03-02T03:34:24;100562.81;;;9.29;100.00
36010;BME280;22076;52.182;5.404;2024-03-02T03:36:52;100562.06;;;9.27;100.00
36010;BME280;22076;52.182;5.404;2024-03-02T03:39:19;100552.91;;;9.20;100.00
36010;BME280;22076;52.182;5.404;2024-03-02T03:41:58;100562.63;;;9.32;100.00
36010;BME280;22076;52.182;5.404;2024-03-02T03:44:25;100573.56;;;9.23;100.00
36010;BME280;22076;52.182;5.404;2024-03-02T03:46:51;100565.06;;;9.19;100.00
36010;BME280;22076;52.182;5.404;2024-03-02T03:49:20;100567.34;;;9.25;100.00
36010;BME280;22076;52.182;5.404;2024-03-02T03:51:47;100581.47;;;9.21;100.00
36010;BME280;22076;52.182;5.404;2024-03-02T03:54:13;100578.47;;;9.13;100.00
36010;BME280;22076;52.182;5.404;2024-03-02T03:56:40;100579.88;;;9.19;100.00
36010;BME280;22076;52.182;5.404;2024-03-02T03:59:06;100584.91;;;9.22;100.00
36010;BME280;22076;52.182;5.404;2024-03-02T04:01:33;100591.34;;;9.48;100.00
36010;BME280;22076;52.182;5.404;2024-03-02T04:04:00;100591.31;;;9.32;100.00
36010;BME280;22076;52.182;5.404;2024-03-02T04:06:28;100574.44;;;9.23;100.00
36010;BME280;22076;52.182;5.404;2024-03-02T04:08:55;100594.69;;;9.34;100.00
36010;BME280;22076;52.182;5.404;2024-03-02T04:11:22;100606.81;;;9.35;100.00
36010;BME280;22076;52.182;5.404;2024-03-02T04:14:03;100602.84;;;9.28;100.00
36010;BME280;22076;52.182;5.404;2024-03-02T04:16:31;100598.31;;;9.32;100.00
36010;BME280;22076;52.182;5.404;2024-03-02T04:18:58;100608.50;;;9.36;100.00
36010;BME280;22076;52.182;5.404;2024-03-02T04:21:28;100611.41;;;9.46;100.00
36010;BME280;22076;52.182;5.404;2024-03-02T04:23:55;100618.75;;;9.39;100.00
36010;BME280;22076;52.182;5.404;2024-03-02T04:26:23;100610.91;;;9.39;100.00
36010;BME280;22076;52.182;5.404;2024-03-02T04:28:51;100619.06;;;9.49;100.00
36010;BME280;22076;52.182;5.404;2024-03-02T04:31:19;100618.06;;;9.36;100.00
36010;BME280;22076;52.182;5.404;2024-03-02T04:33:46;100608.56;;;9.35;100.00
36010;BME280;22076;52.182;5.404;2024-03-02T04:36:12;100616.47;;;9.33;100.00
36010;BME280;22076;52.182;5.404;2024-03-02T04:38:40;100624.63;;;9.43;100.00
36010;BME280;22076;52.182;5.404;2024-03-02T04:41:07;100620.06;;;9.47;100.00
36010;BME280;22076;52.182;5.404;2024-03-02T04:43:34;100624.56;;;9.45;100.00
36010;BME280;22076;52.182;5.404;2024-03-02T04:46:01;100636.31;;;9.52;100.00
36010;BME280;22076;52.182;5.404;2024-03-02T04:48:28;100636.31;;;9.52;100.00
36010;BME280;22076;52.182;5.404;2024-03-02T04:50:54;100634.81;;;9.32;100.00
36010;BME280;22076;52.182;5.404;2024-03-02T04:53:21;100642.47;;;9.51;100.00
36010;BME280;22076;52.182;5.404;2024-03-02T04:55:49;100655.00;;;9.60;100.00
36010;BME280;22076;52.182;5.404;2024-03-02T04:58:45;100644.81;;;9.55;100.00
36010;BME280;22076;52.182;5.404;2024-03-02T05:01:27;100637.56;;;9.61;100.00
36010;BME280;22076;52.182;5.404;2024-03-02T05:03:54;100649.50;;;9.65;100.00
36010;BME280;22076;52.182;5.404;2024-03-02T05:06:21;100647.69;;;9.67;100.00
36010;BME280;22076;52.182;5.404;2024-03-02T05:08:49;100651.97;;;9.68;100.00
36010;BME280;22076;52.182;5.404;2024-03-02T05:11:18;100649.94;;;9.73;100.00
36010;BME280;22076;52.182;5.404;2024-03-02T05:14:02;100650.72;;;9.59;100.00
36010;BME280;22076;52.182;5.404;2024-03-02T05:16:32;100656.41;;;9.66;100.00
36010;BME280;22076;52.182;5.404;2024-03-02T05:18:59;100657.84;;;9.55;100.00
36010;BME280;22076;52.182;5.404;2024-03-02T05:21:25;100650.22;;;9.52;100.00
36010;BME280;22076;52.182;5.404;2024-03-02T05:23:52;100654.41;;;9.55;100.00
36010;BME280;22076;52.182;5.404;2024-03-02T05:26:20;100644.56;;;9.60;100.00
36010;BME280;22076;52.182;5.404;2024-03-02T05:28:46;100651.91;;;9.53;100.00
36010;BME280;22076;52.182;5.404;2024-03-02T05:31:15;100649.19;;;9.55;100.00
36010;BME280;22076;52.182;5.404;2024-03-02T05:33:41;100653.06;;;9.48;100.00
36010;BME280;22076;52.182;5.404;2024-03-02T05:36:09;100646.41;;;9.58;100.00
36010;BME280;22076;52.182;5.404;2024-03-02T05:38:36;100644.13;;;9.52;100.00
36010;BME280;22076;52.182;5.404;2024-03-02T05:41:03;100651.47;;;9.61;100.00
36010;BME280;22076;52.182;5.404;2024-03-02T05:43:37;100645.66;;;9.40;100.00
36010;BME280;22076;52.182;5.404;2024-03-02T05:46:04;100637.03;;;9.06;100.00
36010;BME280;22076;52.182;5.404;2024-03-02T05:48:30;100636.41;;;9.34;100.00
36010;BME280;22076;52.182;5.404;2024-03-02T05:51:09;100653.06;;;9.32;100.00
36010;BME280;22076;52.182;5.404;2024-03-02T05:53:36;100656.25;;;9.37;100.00
36010;BME280;22076;52.182;5.404;2024-03-02T05:56:04;100657.50;;;9.30;100.00
36010;BME280;22076;52.182;5.404;2024-03-02T05:58:30;100658.09;;;9.35;100.00
36010;BME280;22076;52.182;5.404;2024-03-02T06:01:14;100664.31;;;9.32;100.00
36010;BME280;22076;52.182;5.404;2024-03-02T06:03:42;100656.06;;;9.24;100.00
36010;BME280;22076;52.182;5.404;2024-03-02T06:06:08;100657.16;;;9.20;100.00
36010;BME280;22076;52.182;5.404;2024-03-02T06:08:35;100661.06;;;9.29;100.00
36010;BME280;22076;52.182;5.404;2024-03-02T06:11:02;100654.28;;;9.08;100.00
36010;BME280;22076;52.182;5.404;2024-03-02T06:13:29;100662.66;;;9.31;100.00
36010;BME280;22076;52.182;5.404;2024-03-02T06:15:55;100675.94;;;9.42;100.00
36010;BME280;22076;52.182;5.404;2024-03-02T06:18:26;100671.81;;;9.38;100.00
36010;BME280;22076;52.182;5.404;2024-03-02T06:20:53;100664.66;;;9.26;100.00
36010;BME280;22076;52.182;5.404;2024-03-02T06:23:21;100676.00;;;9.41;100.00
36010;BME280;22076;52.182;5.404;2024-03-02T06:25:47;100674.59;;;9.35;100.00
36010;BME280;22076;52.182;5.404;2024-03-02T06:28:14;100675.00;;;9.28;100.00
36010;BME280;22076;52.182;5.404;2024-03-02T06:30:41;100683.16;;;9.37;100.00
36010;BME280;22076;52.182;5.404;2024-03-02T06:33:08;100683.75;;;9.42;100.00
36010;BME280;22076;52.182;5.404;2024-03-02T06:35:36;100679.63;;;9.38;100.00
36010;BME280;22076;52.182;5.404;2024-03-02T06:38:03;100693.94;;;9.31;100.00
36010;BME280;22076;52.182;5.404;2024-03-02T06:40:29;100683.66;;;9.28;100.00
36010;BME280;22076;52.182;5.404;2024-03-02T06:42:55;100697.38;;;9.32;100.00
36010;BME280;22076;52.182;5.404;2024-03-02T06:45:22;100696.88;;;9.25;100.00
36010;BME280;22076;52.182;5.404;2024-03-02T06:47:49;100706.50;;;9.23;100.00
36010;BME280;22076;52.182;5.404;2024-03-02T06:50:17;100704.09;;;9.20;100.00
36010;BME280;22076;52.182;5.404;2024-03-02T06:52:45;100687.16;;;9.11;100.00
36010;BME280;22076;52.182;5.404;2024-03-02T06:55:12;100695.50;;;9.18;100.00
36010;BME280;22076;52.182;5.404;2024-03-02T06:57:38;100680.44;;;9.07;100.00
36010;BME280;22076;52.182;5.404;2024-03-02T07:00:06;100701.31;;;9.23;100.00
36010;BME280;22076;52.182;5.404;2024-03-02T07:02:35;100697.59;;;9.11;100.00
36010;BME280;22076;52.182;5.404;2024-03-02T07:05:02;100703.38;;;9.00;100.00
36010;BME280;22076;52.182;5.404;2024-03-02T07:07:35;100698.75;;;9.05;100.00
36010;BME280;22076;52.182;5.404;2024-03-02T07:10:04;100693.16;;;8.96;100.00
36010;BME280;22076;52.182;5.404;2024-03-02T07:12:30;100698.69;;;8.89;100.00
36010;BME280;22076;52.182;5.404;2024-03-02T07:14:56;100699.28;;;8.95;100.00
36010;BME280;22076;52.182;5.404;2024-03-02T07:17:54;100702.63;;;9.14;100.00
36010;BME280;22076;52.182;5.404;2024-03-02T07:20:21;100706.78;;;9.18;100.00
36010;BME280;22076;52.182;5.404;2024-03-02T07:22:47;100704.31;;;9.15;100.00
36010;BME280;22076;52.182;5.404;2024-03-02T07:25:15;100709.72;;;9.28;100.00
36010;BME280;22076;52.182;5.404;2024-03-02T07:27:42;100712.41;;;9.26;100.00
36010;BME280;22076;52.182;5.404;2024-03-02T07:30:13;100713.19;;;9.29;100.00
36010;BME280;22076;52.182;5.404;2024-03-02T07:32:42;100718.66;;;9.40;100.00
36010;BME280;22076;52.182;5.404;2024-03-02T07:35:11;100711.59;;;9.26;100.00
36010;BME280;22076;52.182;5.404;2024-03-02T07:37:39;100715.84;;;9.27;100.00
36010;BME280;22076;52.182;5.404;2024-03-02T07:40:13;100711.00;;;9.37;100.00
36010;BME280;22076;52.182;5.404;2024-03-02T07:42:50;100721.13;;;9.43;100.00
36010;BME280;22076;52.182;5.404;2024-03-02T07:45:17;100717.50;;;9.46;100.00
36010;BME280;22076;52.182;5.404;2024-03-02T07:47:43;100709.56;;;9.31;100.00
36010;BME280;22076;52.182;5.404;2024-03-02T07:50:11;100717.06;;;9.37;100.00
36010;BME280;22076;52.182;5.404;2024-03-02T07:52:37;100713.78;;;9.34;100.00
36010;BME280;22076;52.182;5.404;2024-03-02T07:55:07;100715.59;;;9.16;100.00
36010;BME280;22076;52.182;5.404;2024-03-02T07:57:33;100713.72;;;9.18;100.00
36010;BME280;22076;52.182;5.404;2024-03-02T08:00:03;100725.16;;;9.15;100.00
36010;BME280;22076;52.182;5.404;2024-03-02T08:02:30;100722.13;;;9.07;100.00
36010;BME280;22076;52.182;5.404;2024-03-02T08:04:59;100724.47;;;9.12;100.00
36010;BME280;22076;52.182;5.404;2024-03-02T08:07:26;100739.19;;;9.13;100.00
36010;BME280;22076;52.182;5.404;2024-03-02T08:09:53;100743.69;;;9.26;100.00
36010;BME280;22076;52.182;5.404;2024-03-02T08:12:21;100748.88;;;9.11;100.00
36010;BME280;22076;52.182;5.404;2024-03-02T08:14:48;100744.50;;;9.11;100.00
36010;BME280;22076;52.182;5.404;2024-03-02T08:17:16;100750.00;;;9.05;100.00
36010;BME280;22076;52.182;5.404;2024-03-02T08:19:44;100741.19;;;9.07;100.00
36010;BME280;22076;52.182;5.404;2024-03-02T08:22:10;100752.31;;;9.11;100.00
36010;BME280;22076;52.182;5.404;2024-03-02T08:24:39;100754.56;;;9.01;100.00
36010;BME280;22076;52.182;5.404;2024-03-02T08:27:07;100748.88;;;9.11;100.00
36010;BME280;22076;52.182;5.404;2024-03-02T08:29:34;100755.31;;;9.21;100.00
36010;BME280;22076;52.182;5.404;2024-03-02T08:32:04;100746.41;;;9.07;100.00
36010;BME280;22076;52.182;5.404;2024-03-02T08:34:42;100752.13;;;9.32;100.00
36010;BME280;22076;52.182;5.404;2024-03-02T08:37:08;100749.34;;;9.35;100.00
36010;BME280;22076;52.182;5.404;2024-03-02T08:39:36;100740.97;;;9.46;100.00
36010;BME280;22076;52.182;5.404;2024-03-02T08:42:03;100746.94;;;9.48;100.00
36010;BME280;22076;52.182;5.404;2024-03-02T08:44:31;100746.19;;;9.46;100.00
36010;BME280;22076;52.182;5.404;2024-03-02T08:46:58;100743.53;;;9.30;100.00
36010;BME280;22076;52.182;5.404;2024-03-02T08:49:25;100761.75;;;9.47;100.00
36010;BME280;22076;52.182;5.404;2024-03-02T08:51:53;100752.44;;;9.59;100.00
36010;BME280;22076;52.182;5.404;2024-03-02T08:54:20;100751.94;;;9.68;100.00
36010;BME280;22076;52.182;5.404;2024-03-02T08:56:47;100740.25;;;9.75;100.00
36010;BME280;22076;52.182;5.404;2024-03-02T08:59:21;100747.72;;;9.82;100.00
36010;BME280;22076;52.182;5.404;2024-03-02T09:01:47;100740.00;;;9.96;100.00
36010;BME280;22076;52.182;5.404;2024-03-02T09:04:14;100734.09;;;10.08;100.00
36010;BME280;22076;52.182;5.404;2024-03-02T09:06:40;100745.44;;;10.07;100.00
36010;BME280;22076;52.182;5.404;2024-03-02T09:09:08;100745.88;;;10.00;100.00
36010;BME280;22076;52.182;5.404;2024-03-02T09:11:35;100737.03;;;9.86;100.00
36010;BME280;22076;52.182;5.404;2024-03-02T09:14:02;100729.28;;;10.01;100.00
36010;BME280;22076;52.182;5.404;2024-03-02T09:16:34;100730.38;;;10.13;100.00
36010;BME280;22076;52.182;5.404;2024-03-02T09:19:00;100733.47;;;10.19;100.00
36010;BME280;22076;52.182;5.404;2024-03-02T09:21:27;100737.69;;;10.22;100.00
36010;BME280;22076;52.182;5.404;2024-03-02T09:23:56;100731.22;;;10.13;100.00
36010;BME280;22076;52.182;5.404;2024-03-02T09:26:24;100720.19;;;9.92;100.00
36010;BME280;22076;52.182;5.404;2024-03-02T09:28:51;100716.00;;;10.05;100.00
36010;BME280;22076;52.182;5.404;2024-03-02T09:31:24;100712.28;;;10.09;100.00
36010;BME280;22076;52.182;5.404;2024-03-02T09:33:50;100724.28;;;10.28;100.00
36010;BME280;22076;52.182;5.404;2024-03-02T09:36:22;100719.69;;;10.17;100.00
36010;BME280;22076;52.182;5.404;2024-03-02T09:38:49;100721.59;;;10.30;100.00
36010;BME280;22076;52.182;5.404;2024-03-02T09:41:16;100722.53;;;10.45;100.00
36010;BME280;22076;52.182;5.404;2024-03-02T09:43:44;100731.34;;;10.72;100.00
36010;BME280;22076;52.182;5.404;2024-03-02T09:46:11;100724.63;;;10.68;100.00
36010;BME280;22076;52.182;5.404;2024-03-02T09:48:48;100731.94;;;10.78;100.00
36010;BME280;22076;52.182;5.404;2024-03-02T09:51:23;100725.31;;;10.72;100.00
36010;BME280;22076;52.182;5.404;2024-03-02T09:53:50;100727.59;;;10.62;100.00
36010;BME280;22076;52.182;5.404;2024-03-02T09:56:17;100708.34;;;10.49;100.00
36010;BME280;22076;52.182;5.404;2024-03-02T09:58:45;100718.44;;;10.55;100.00
36010;BME280;22076;52.182;5.404;2024-03-02T10:01:14;100715.50;;;10.76;100.00
36010;BME280;22076;52.182;5.404;2024-03-02T10:03:41;100713.19;;;10.85;100.00
36010;BME280;22076;52.182;5.404;2024-03-02T10:06:21;100725.69;;;10.95;100.00
36010;BME280;22076;52.182;5.404;2024-03-02T10:08:48;100712.03;;;10.75;100.00
36010;BME280;22076;52.182;5.404;2024-03-02T10:11:27;100712.34;;;10.85;100.00
36010;BME280;22076;52.182;5.404;2024-03-02T10:14:06;100716.56;;;10.87;100.00
36010;BME280;22076;52.182;5.404;2024-03-02T10:16:34;100722.34;;;10.93;100.00
36010;BME280;22076;52.182;5.404;2024-03-02T10:19:18;100713.59;;;11.22;100.00
36010;BME280;22076;52.182;5.404;2024-03-02T10:21:46;100713.28;;;10.98;100.00
36010;BME280;22076;52.182;5.404;2024-03-02T10:24:12;100713.66;;;11.06;100.00
36010;BME280;22076;52.182;5.404;2024-03-02T10:26:39;100722.06;;;11.12;100.00
36010;BME280;22076;52.182;5.404;2024-03-02T10:29:10;100717.69;;;11.27;100.00
36010;BME280;22076;52.182;5.404;2024-03-02T10:31:38;100723.94;;;11.10;100.00
36010;BME280;22076;52.182;5.404;2024-03-02T10:34:05;100712.63;;;11.23;100.00
36010;BME280;22076;52.182;5.404;2024-03-02T10:36:32;100710.78;;;11.40;100.00
36010;BME280;22076;52.182;5.404;2024-03-02T10:39:02;100708.91;;;11.42;100.00
36010;BME280;22076;52.182;5.404;2024-03-02T10:41:32;100690.13;;;11.50;100.00
36010;BME280;22076;52.182;5.404;2024-03-02T10:43:59;100696.28;;;11.49;100.00
36010;BME280;22076;52.182;5.404;2024-03-02T10:46:30;100704.28;;;11.74;100.00
36010;BME280;22076;52.182;5.404;2024-03-02T10:48:59;100691.03;;;11.63;100.00
36010;BME280;22076;52.182;5.404;2024-03-02T10:51:26;100691.03;;;11.63;100.00
36010;BME280;22076;52.182;5.404;2024-03-02T10:53:54;100696.47;;;11.31;100.00
36010;BME280;22076;52.182;5.404;2024-03-02T10:56:28;100685.66;;;11.79;100.00
36010;BME280;22076;52.182;5.404;2024-03-02T11:01:55;100679.28;;;11.98;100.00
36010;BME280;22076;52.182;5.404;2024-03-02T11:04:24;100679.00;;;12.15;100.00
36010;BME280;22076;52.182;5.404;2024-03-02T11:06:51;100689.91;;;12.22;100.00
36010;BME280;22076;52.182;5.404;2024-03-02T11:09:21;100659.53;;;12.19;100.00
36010;BME280;22076;52.182;5.404;2024-03-02T11:11:56;100674.34;;;12.33;100.00
36010;BME280;22076;52.182;5.404;2024-03-02T11:14:24;100668.81;;;12.11;100.00
36010;BME280;22076;52.182;5.404;2024-03-02T11:16:53;100674.44;;;12.32;100.00
36010;BME280;22076;52.182;5.404;2024-03-02T11:19:20;100682.09;;;12.35;100.00
36010;BME280;22076;52.182;5.404;2024-03-02T11:21:47;100684.03;;;12.18;100.00
36010;BME280;22076;52.182;5.404;2024-03-02T11:24:34;100681.63;;;12.15;100.00
36010;BME280;22076;52.182;5.404;2024-03-02T11:27:02;100678.75;;;12.05;100.00
36010;BME280;22076;52.182;5.404;2024-03-02T11:29:44;100683.91;;;12.07;100.00
36010;BME280;22076;52.182;5.404;2024-03-02T11:32:16;100674.53;;;12.17;100.00
36010;BME280;22076;52.182;5.404;2024-03-02T11:34:45;100673.88;;;12.67;100.00
36010;BME280;22076;52.182;5.404;2024-03-02T11:37:13;100665.00;;;12.29;100.00
36010;BME280;22076;52.182;5.404;2024-03-02T11:39:42;100677.53;;;12.64;100.00
36010;BME280;22076;52.182;5.404;2024-03-02T11:42:09;100673.66;;;12.83;100.00
36010;BME280;22076;52.182;5.404;2024-03-02T11:44:37;100678.75;;;12.46;100.00
36010;BME280;22076;52.182;5.404;2024-03-02T11:47:06;100681.50;;;12.70;100.00
36010;BME280;22076;52.182;5.404;2024-03-02T11:49:39;100420.44;;;12.43;100.00
36010;BME280;22076;52.182;5.404;2024-03-02T11:52:07;100313.50;;;12.48;100.00
36010;BME280;22076;52.182;5.404;2024-03-02T11:54:35;100259.84;;;12.54;100.00
36010;BME280;22076;52.182;5.404;2024-03-02T11:57:05;100238.69;;;12.68;100.00
36010;BME280;22076;52.182;5.404;2024-03-02T11:59:32;100241.28;;;12.57;100.00
36010;BME280;22076;52.182;5.404;2024-03-02T12:01:59;100247.75;;;12.76;100.00
36010;BME280;22076;52.182;5.404;2024-03-02T12:04:26;100277.94;;;12.81;100.00
36010;BME280;22076;52.182;5.404;2024-03-02T12:06:58;100263.06;;;12.93;100.00
36010;BME280;22076;52.182;5.404;2024-03-02T12:09:26;100269.75;;;12.97;100.00
36010;BME280;22076;52.182;5.404;2024-03-02T12:12:09;100269.97;;;13.05;100.00
36010;BME280;22076;52.182;5.404;2024-03-02T12:14:37;100269.91;;;13.07;100.00
36010;BME280;22076;52.182;5.404;2024-03-02T12:17:04;100283.00;;;13.18;100.00
36010;BME280;22076;52.182;5.404;2024-03-02T12:19:32;100274.28;;;13.06;100.00
36010;BME280;22076;52.182;5.404;2024-03-02T12:22:00;100282.41;;;13.26;100.00
36010;BME280;22076;52.182;5.404;2024-03-02T12:24:28;100302.94;;;13.32;100.00
36010;BME280;22076;52.182;5.404;2024-03-02T12:26:56;100306.75;;;13.28;100.00
36010;BME280;22076;52.182;5.404;2024-03-02T12:29:23;100319.47;;;13.10;100.00
36010;BME280;22076;52.182;5.404;2024-03-02T12:31:51;100337.59;;;13.13;100.00
36010;BME280;22076;52.182;5.404;2024-03-02T12:34:18;100356.47;;;13.30;100.00
36010;BME280;22076;52.182;5.404;2024-03-02T12:36:46;100387.66;;;13.46;100.00
36010;BME280;22076;52.182;5.404;2024-03-02T12:39:16;100427.19;;;13.55;100.00
36010;BME280;22076;52.182;5.404;2024-03-02T12:41:43;100460.66;;;13.76;100.00
36010;BME280;22076;52.182;5.404;2024-03-02T12:44:10;100474.63;;;13.41;100.00
36010;BME280;22076;52.182;5.404;2024-03-02T12:46:36;100479.22;;;13.62;100.00
36010;BME280;22076;52.182;5.404;2024-03-02T12:49:08;100497.28;;;13.78;100.00
36010;BME280;22076;52.182;5.404;2024-03-02T12:51:38;100505.34;;;13.63;100.00
36010;BME280;22076;52.182;5.404;2024-03-02T12:54:06;100517.78;;;13.73;100.00
36010;BME280;22076;52.182;5.404;2024-03-02T12:56:35;100523.28;;;13.81;100.00
36010;BME280;22076;52.182;5.404;2024-03-02T12:59:03;100521.66;;;13.91;100.00